METAR AND TAF INFORMATION
METAR FOR ESGG
ADDS - METARS form results

(2318 UTC 04 August 2021)
Data provider http://aviationweather.gov/metar/data/
 
METAR text: ESGG 042250Z 01002KT CAVOK 11/09 Q1015
Conditions at: ESGG (GOTEBORG/LANDVET, SE) observed 2250 UTC 04 August 2021
Temperature: 11.0°C (52°F)
Dewpoint: 9.0°C (48°F) [RH = 87%]
Pressure (altimeter): 29.97 inches Hg (1015.0 mb)
Winds: from the N (10 degrees) at 2 MPH (2 knots; 1.0 m/s)
Visibility: 6 or more miles (10+ km)
Ceiling: ceiling and visibility are OK
Clouds: unknown
Weather: no significant weather observed at this time

METAR text: ESGG 042220Z 01002KT CAVOK 12/09 Q1015
Conditions at: ESGG (GOTEBORG/LANDVET, SE) observed 2220 UTC 04 August 2021
Temperature: 12.0°C (54°F)
Dewpoint: 9.0°C (48°F) [RH = 82%]
Pressure (altimeter): 29.97 inches Hg (1015.0 mb)
Winds: from the N (10 degrees) at 2 MPH (2 knots; 1.0 m/s)
Visibility: 6 or more miles (10+ km)
Ceiling: ceiling and visibility are OK
Clouds: unknown
Weather: no significant weather observed at this time

Forecast for: ESGG (GOTEBORG/LANDVET, SE)
Text: TAF ESGG 041730Z 0418/0518 30008KT CAVOK
Forecast period: 1800 UTC 04 August 2021 to 1000 UTC 05 August 2021
Forecast type: FROM: standard forecast or significant change
Winds: from the WNW (300 degrees) at 9 MPH (8 knots; 4.1 m/s)
Visibility: 6 or more miles (10+ km)
Ceiling: unknown
Clouds: missing
Weather: NSW  (no significant weather)
Text: PROB40 0501/0506 1200 BCFG
Forecast period: 0100 to 0600 UTC 05 August 2021
Forecast type: PROBABLE: 40 percent likelihood of the following during this time
Visibility: 0.75 miles (1.21 km)
Ceiling: unknown
Clouds: missing
Weather: BCFG  (patches of fog)
Text: BECMG 0510/0512 15010KT
Forecast period: 1000 to 1800 UTC 05 August 2021
Forecast type: BECOMING: Conditions expected to become as follows by 1200 UTC 05 August 2021
Winds: from the SSE (150 degrees) at 12 MPH (10 knots; 5.1 m/s)
Visibility: 6 or more miles (10+ km)
Ceiling: unknown
Clouds: missing
Weather: NSW  (no significant weather)

 AIRPORT MAP

 RUNWAY INFORMATION
Runway 03 Runway length 10823 ft Runway width 148 ft
Runway elevation 478 ft Runway displaced threshold 0 ft Runway heading 26
Runway 21 Runway length 10823 ft Runway width 148 ft
Runway elevation 506 ft Runway displaced threshold 0 ft Runway heading 206

 AIRPORT FREQUENCIES
Type ATIS Name ATIS Frequency 118.375 MHZ
Type GCCD Name GND Frequency 121.9 MHZ
Type TCA Name GOTEBORG A Frequency 124.675 MHZ
Type TWR Name TWR Frequency 118.6 MHZ

 AIRPORT NEAR NAVIGATION AIDS
Type VOR-DME Name Landvetter Frequency 114600 KHZ





Powered by Virtual Airlines Manager

Maps by Rafael Santos